PDT,Max TemperatureF,Mean TemperatureF,Min TemperatureF,Max Dew PointF,MeanDew PointF,Min DewpointF,Max Humidity, Mean Humidity, Min Humidity, Max Sea Level PressureIn, Mean Sea Level PressureIn, Min Sea Level PressureIn, Max VisibilityMiles, Mean VisibilityMiles, Min VisibilityMiles, Max Wind SpeedMPH, Mean Wind SpeedMPH, Max Gust SpeedMPH,PrecipitationIn, CloudCover, Events, WindDirDegrees
2013-9-1,71,63,55,61,57,52,100,82,50,29.97,29.92,29.89,10,9,2,16,4,21,0.02,4,Rain,195
2013-9-2,69,62,55,63,59,52,100,88,64,29.98,29.94,29.90,10,8,1,20,10,26,0.02,4,Rain,189
2013-9-3,69,61,53,61,56,52,100,86,60,30.06,30.02,29.97,10,10,7,15,6,22,0.00,4,,174
2013-9-4,66,62,59,61,59,57,100,94,78,30.11,30.07,30.03,10,7,0,9,2,,0.00,6,Fog,220
2013-9-5,60,60,59,61,59,59,100,98,94,30.14,30.08,30.05,10,6,1,10,2,,0.68,8,Rain,255
2013-9-6,68,62,55,61,59,55,100,93,73,30.20,30.17,30.13,10,6,0,10,7,,0.03,7,Fog-Rain,217
2013-9-7,66,60,55,61,58,55,100,94,78,30.14,30.06,30.01,10,8,1,17,7,24,0.00,3,,21
2013-9-8,68,62,57,64,59,57,100,96,78,30.10,30.06,30.04,10,4,0,23,5,30,0.00,6,Fog,352
2013-9-9,64,58,53,59,57,54,100,95,83,30.07,30.02,29.96,10,6,0,22,7,29,0.00,4,Fog,355
2013-9-10,64,57,50,59,55,50,100,92,73,29.96,29.88,29.79,10,6,0,18,4,24,0.00,1,Fog,343
2013-9-11,62,58,53,59,56,54,100,92,82,30.03,29.97,29.85,10,8,1,21,13,26,0.00,8,Rain,199
2013-9-12,62,58,55,59,57,55,100,94,82,30.04,30.03,30.01,10,7,2,9,5,,0.00,8,Rain,223
2013-9-13,64,60,55,59,58,55,100,93,83,30.03,29.97,29.90,10,8,2,10,3,,0.00,8,,11
2013-9-14,60,58,57,59,58,55,100,97,88,29.90,29.85,29.81,10,5,1,12,4,,0.01,8,Rain,350
2013-9-15,59,58,57,59,58,55,100,98,88,29.95,29.86,29.80,10,4,0,15,7,18,0.12,8,Rain,193
2013-9-16,64,60,55,59,57,55,100,92,83,30.03,29.99,29.95,10,8,3,12,7,,0.00,7,Rain,206
2013-9-17,64,58,53,57,55,52,100,90,72,30.07,29.98,29.92,10,8,1,8,3,,0.00,4,Rain,282
2013-9-18,62,56,51,59,55,52,100,91,77,30.14,30.09,30.02,10,9,0,12,4,,0.03,1,Fog-Rain,244
2013-9-19,68,60,51,57,52,48,100,83,60,30.02,29.92,29.83,10,10,7,15,6,,0.00,0,,125
2013-9-20,60,56,51,59,55,50,100,94,82,29.83,29.74,29.70,10,8,1,17,5,24,0.10,6,Rain,152
2013-9-21,62,58,53,57,55,54,100,91,72,29.84,29.77,29.71,10,9,4,13,5,17,0.02,6,Rain,179
2013-9-22,59,57,55,57,56,54,100,95,88,29.91,29.82,29.72,10,5,1,33,15,51,0.28,7,Rain,190
2013-9-23,60,56,53,59,55,54,100,94,82,30.04,30.00,29.91,10,4,2,18,10,25,0.31,8,Rain,189
2013-9-24,55,52,46,54,51,46,100,95,88,30.02,29.97,29.92,10,7,2,12,4,,0.52,7,Rain,159
2013-9-25,59,52,44,50,47,45,100,88,67,30.10,30.00,29.91,10,9,1,8,4,,0.25,3,Rain,227
2013-9-26,60,51,42,55,48,41,100,91,77,30.22,30.15,30.09,10,10,5,9,3,,0.00,1,,171
2013-9-27,59,52,44,57,52,45,100,96,88,30.22,30.12,29.97,10,7,2,24,9,32,0.42,6,Rain,171
2013-9-28,59,55,51,59,56,52,100,95,94,29.97,29.76,29.60,7,3,1,40,24,58,1.31,8,Rain,196
2013-9-29,59,55,51,59,54,46,100,94,67,29.74,29.65,29.48,7,3,1,38,22,53,1.63,8,Rain,208
2013-9-30,60,56,51,54,51,46,94,83,67,30.04,29.92,29.72,7,5,2,26,16,43,0.18,7,Rain,220